Aviation Digital Data Service (ADDS)

Output produced by METARs form (1759 UTC 24 October 2014)
found at http://www.aviationweather.gov/adds/metars/
 
KBMI 241733Z 2418/2518 23008KT P6SM SCT025 BKN250 
     FM250400 21005KT 4SM BR BKN025 
     FM251000 25003KT 2SM BR SCT025 
     FM251400 31008KT P6SM SCT015